sensor_id;sensor_type;location;lat;lon;timestamp;temperature;humidity
11047;DHT22;5576;50.008;10.596;2023-02-21T00:00:46;8.90;99.90
11047;DHT22;5576;50.008;10.596;2023-02-21T00:03:32;5.70;99.90
11047;DHT22;5576;50.008;10.596;2023-02-21T00:06:18;7.70;99.90
11047;DHT22;5576;50.008;10.596;2023-02-21T00:09:04;7.70;99.90
11047;DHT22;5576;50.008;10.596;2023-02-21T00:11:50;6.70;99.90
11047;DHT22;5576;50.008;10.596;2023-02-21T00:14:37;7.40;99.90
11047;DHT22;5576;50.008;10.596;2023-02-21T00:17:22;6.90;99.90
11047;DHT22;5576;50.008;10.596;2023-02-21T00:20:08;11.60;99.90
11047;DHT22;5576;50.008;10.596;2023-02-21T00:22:54;7.70;99.90
11047;DHT22;5576;50.008;10.596;2023-02-21T00:25:40;7.70;99.90
11047;DHT22;5576;50.008;10.596;2023-02-21T00:28:25;7.70;99.90
11047;DHT22;5576;50.008;10.596;2023-02-21T00:31:11;4.60;99.90
11047;DHT22;5576;50.008;10.596;2023-02-21T00:33:57;7.90;99.90
11047;DHT22;5576;50.008;10.596;2023-02-21T00:36:43;7.00;99.90
11047;DHT22;5576;50.008;10.596;2023-02-21T00:39:28;7.80;99.90
11047;DHT22;5576;50.008;10.596;2023-02-21T00:42:14;7.80;99.90
11047;DHT22;5576;50.008;10.596;2023-02-21T00:45:00;7.90;99.90
11047;DHT22;5576;50.008;10.596;2023-02-21T00:47:45;4.30;99.90
11047;DHT22;5576;50.008;10.596;2023-02-21T00:50:31;8.00;99.90
11047;DHT22;5576;50.008;10.596;2023-02-21T00:53:17;6.60;99.90
11047;DHT22;5576;50.008;10.596;2023-02-21T00:56:03;6.10;99.90
11047;DHT22;5576;50.008;10.596;2023-02-21T00:58:49;9.60;99.90
11047;DHT22;5576;50.008;10.596;2023-02-21T01:01:35;7.90;99.90
11047;DHT22;5576;50.008;10.596;2023-02-21T01:04:20;7.80;99.90
11047;DHT22;5576;50.008;10.596;2023-02-21T01:07:06;7.80;99.90
11047;DHT22;5576;50.008;10.596;2023-02-21T01:09:52;7.80;99.90
11047;DHT22;5576;50.008;10.596;2023-02-21T01:12:37;8.00;99.90
11047;DHT22;5576;50.008;10.596;2023-02-21T01:15:23;8.00;99.90
11047;DHT22;5576;50.008;10.596;2023-02-21T01:18:08;7.90;99.90
11047;DHT22;5576;50.008;10.596;2023-02-21T01:20:54;7.70;99.90
11047;DHT22;5576;50.008;10.596;2023-02-21T01:23:40;7.50;99.90
11047;DHT22;5576;50.008;10.596;2023-02-21T01:26:26;5.60;99.90
11047;DHT22;5576;50.008;10.596;2023-02-21T01:29:11;7.30;99.90
11047;DHT22;5576;50.008;10.596;2023-02-21T01:31:59;7.40;99.90
11047;DHT22;5576;50.008;10.596;2023-02-21T01:34:44;7.50;99.90
11047;DHT22;5576;50.008;10.596;2023-02-21T01:37:30;7.40;99.90
11047;DHT22;5576;50.008;10.596;2023-02-21T01:40:16;7.40;99.90
11047;DHT22;5576;50.008;10.596;2023-02-21T01:43:04;7.30;99.90
11047;DHT22;5576;50.008;10.596;2023-02-21T01:45:54;7.50;99.90
11047;DHT22;5576;50.008;10.596;2023-02-21T01:48:40;7.50;99.90
11047;DHT22;5576;50.008;10.596;2023-02-21T01:51:40;10.10;99.90
11047;DHT22;5576;50.008;10.596;2023-02-21T01:54:29;7.50;99.90
11047;DHT22;5576;50.008;10.596;2023-02-21T01:57:16;11.70;99.90
11047;DHT22;5576;50.008;10.596;2023-02-21T02:00:06;5.40;99.90
11047;DHT22;5576;50.008;10.596;2023-02-21T02:03:03;11.20;99.90
11047;DHT22;5576;50.008;10.596;2023-02-21T02:05:53;7.70;99.90
11047;DHT22;5576;50.008;10.596;2023-02-21T02:08:40;7.80;99.90
11047;DHT22;5576;50.008;10.596;2023-02-21T02:15:00;9.10;99.90
11047;DHT22;5576;50.008;10.596;2023-02-21T02:42:55;7.70;99.90
11047;DHT22;5576;50.008;10.596;2023-02-21T02:45:30;6.40;99.90
11047;DHT22;5576;50.008;10.596;2023-02-21T02:48:06;7.60;99.90
11047;DHT22;5576;50.008;10.596;2023-02-21T02:50:36;9.30;99.90
11047;DHT22;5576;50.008;10.596;2023-02-21T02:53:04;7.60;99.90
11047;DHT22;5576;50.008;10.596;2023-02-21T02:55:44;7.00;99.90
11047;DHT22;5576;50.008;10.596;2023-02-21T02:58:13;7.60;99.90
11047;DHT22;5576;50.008;10.596;2023-02-21T03:00:44;10.20;99.90
11047;DHT22;5576;50.008;10.596;2023-02-21T03:03:29;10.20;99.90
11047;DHT22;5576;50.008;10.596;2023-02-21T03:06:11;7.70;99.90
11047;DHT22;5576;50.008;10.596;2023-02-21T03:09:01;11.30;99.90
11047;DHT22;5576;50.008;10.596;2023-02-21T03:11:28;7.70;99.90
11047;DHT22;5576;50.008;10.596;2023-02-21T03:14:02;7.80;99.90
11047;DHT22;5576;50.008;10.596;2023-02-21T03:16:35;4.90;99.90
11047;DHT22;5576;50.008;10.596;2023-02-21T03:19:13;7.90;99.90
11047;DHT22;5576;50.008;10.596;2023-02-21T03:21:52;7.90;99.90
11047;DHT22;5576;50.008;10.596;2023-02-21T03:24:21;7.80;99.90
11047;DHT22;5576;50.008;10.596;2023-02-21T03:26:52;10.60;99.90
11047;DHT22;5576;50.008;10.596;2023-02-21T03:29:38;6.40;99.90
11047;DHT22;5576;50.008;10.596;2023-02-21T03:32:16;7.90;99.90
11047;DHT22;5576;50.008;10.596;2023-02-21T03:34:45;7.90;99.90
11047;DHT22;5576;50.008;10.596;2023-02-21T03:37:21;10.40;99.90
11047;DHT22;5576;50.008;10.596;2023-02-21T03:39:53;8.00;99.90
11047;DHT22;5576;50.008;10.596;2023-02-21T03:42:18;8.10;99.90
11047;DHT22;5576;50.008;10.596;2023-02-21T03:44:44;8.10;99.90
11047;DHT22;5576;50.008;10.596;2023-02-21T03:47:10;11.90;99.90
11047;DHT22;5576;50.008;10.596;2023-02-21T03:49:36;11.30;99.90
11047;DHT22;5576;50.008;10.596;2023-02-21T03:52:02;8.10;99.90
11047;DHT22;5576;50.008;10.596;2023-02-21T03:54:29;8.30;99.90
11047;DHT22;5576;50.008;10.596;2023-02-21T03:56:57;8.20;99.90
11047;DHT22;5576;50.008;10.596;2023-02-21T03:59:25;4.60;99.90
11047;DHT22;5576;50.008;10.596;2023-02-21T04:01:51;8.10;99.90
11047;DHT22;5576;50.008;10.596;2023-02-21T04:04:18;8.30;99.90
11047;DHT22;5576;50.008;10.596;2023-02-21T04:06:48;12.40;99.90
11047;DHT22;5576;50.008;10.596;2023-02-21T04:09:14;8.50;99.90
11047;DHT22;5576;50.008;10.596;2023-02-21T04:11:45;10.10;99.90
11047;DHT22;5576;50.008;10.596;2023-02-21T04:14:12;10.50;99.90
11047;DHT22;5576;50.008;10.596;2023-02-21T04:16:38;12.30;99.90
11047;DHT22;5576;50.008;10.596;2023-02-21T04:19:04;8.50;99.90
11047;DHT22;5576;50.008;10.596;2023-02-21T04:21:30;8.40;99.90
11047;DHT22;5576;50.008;10.596;2023-02-21T04:23:58;4.30;99.90
11047;DHT22;5576;50.008;10.596;2023-02-21T04:26:28;11.60;99.90
11047;DHT22;5576;50.008;10.596;2023-02-21T04:28:55;8.20;99.90
11047;DHT22;5576;50.008;10.596;2023-02-21T04:31:22;10.20;99.90
11047;DHT22;5576;50.008;10.596;2023-02-21T04:33:49;7.60;99.90
11047;DHT22;5576;50.008;10.596;2023-02-21T04:36:21;9.90;99.90
11047;DHT22;5576;50.008;10.596;2023-02-21T04:38:47;8.00;99.90
11047;DHT22;5576;50.008;10.596;2023-02-21T04:41:12;8.10;99.90
11047;DHT22;5576;50.008;10.596;2023-02-21T04:43:42;11.40;99.90
11047;DHT22;5576;50.008;10.596;2023-02-21T04:46:08;10.40;99.90
11047;DHT22;5576;50.008;10.596;2023-02-21T04:48:34;6.70;99.90
11047;DHT22;5576;50.008;10.596;2023-02-21T04:51:00;8.00;99.90
11047;DHT22;5576;50.008;10.596;2023-02-21T04:53:26;7.90;99.90
11047;DHT22;5576;50.008;10.596;2023-02-21T04:55:52;8.00;99.90
11047;DHT22;5576;50.008;10.596;2023-02-21T04:58:17;7.80;99.90
11047;DHT22;5576;50.008;10.596;2023-02-21T05:00:43;7.90;99.90
11047;DHT22;5576;50.008;10.596;2023-02-21T05:03:09;7.90;99.90
11047;DHT22;5576;50.008;10.596;2023-02-21T05:05:34;8.30;99.90
11047;DHT22;5576;50.008;10.596;2023-02-21T05:08:00;7.80;99.90
11047;DHT22;5576;50.008;10.596;2023-02-21T05:10:26;11.20;99.90
11047;DHT22;5576;50.008;10.596;2023-02-21T05:12:52;7.90;99.90
11047;DHT22;5576;50.008;10.596;2023-02-21T05:15:17;11.70;99.90
11047;DHT22;5576;50.008;10.596;2023-02-21T05:17:43;7.80;99.90
11047;DHT22;5576;50.008;10.596;2023-02-21T05:20:10;3.90;99.90
11047;DHT22;5576;50.008;10.596;2023-02-21T05:22:38;7.80;99.90
11047;DHT22;5576;50.008;10.596;2023-02-21T05:25:06;7.70;99.90
11047;DHT22;5576;50.008;10.596;2023-02-21T05:27:33;7.70;99.90
11047;DHT22;5576;50.008;10.596;2023-02-21T05:29:59;7.70;99.90
11047;DHT22;5576;50.008;10.596;2023-02-21T05:32:24;7.70;99.90
11047;DHT22;5576;50.008;10.596;2023-02-21T05:34:54;7.60;99.90
11047;DHT22;5576;50.008;10.596;2023-02-21T05:37:20;7.40;99.90
11047;DHT22;5576;50.008;10.596;2023-02-21T05:39:46;7.40;99.90
11047;DHT22;5576;50.008;10.596;2023-02-21T05:42:12;5.90;99.90
11047;DHT22;5576;50.008;10.596;2023-02-21T05:44:38;9.00;99.90
11047;DHT22;5576;50.008;10.596;2023-02-21T05:47:04;7.30;99.90
11047;DHT22;5576;50.008;10.596;2023-02-21T05:49:32;10.90;99.90
11047;DHT22;5576;50.008;10.596;2023-02-21T05:51:57;7.40;99.90
11047;DHT22;5576;50.008;10.596;2023-02-21T05:54:23;7.40;99.90
11047;DHT22;5576;50.008;10.596;2023-02-21T05:56:50;9.10;99.90
11047;DHT22;5576;50.008;10.596;2023-02-21T05:59:17;4.10;99.90
11047;DHT22;5576;50.008;10.596;2023-02-21T06:01:44;4.90;99.90
11047;DHT22;5576;50.008;10.596;2023-02-21T06:04:10;10.70;99.90
11047;DHT22;5576;50.008;10.596;2023-02-21T06:06:36;7.00;99.90
11047;DHT22;5576;50.008;10.596;2023-02-21T06:09:03;7.00;99.90
11047;DHT22;5576;50.008;10.596;2023-02-21T06:11:32;6.80;99.90
11047;DHT22;5576;50.008;10.596;2023-02-21T06:14:00;6.80;99.90
11047;DHT22;5576;50.008;10.596;2023-02-21T06:16:33;6.60;99.90
11047;DHT22;5576;50.008;10.596;2023-02-21T06:18:59;4.50;99.90
11047;DHT22;5576;50.008;10.596;2023-02-21T06:21:25;10.00;99.90
11047;DHT22;5576;50.008;10.596;2023-02-21T06:23:51;5.70;99.90
11047;DHT22;5576;50.008;10.596;2023-02-21T06:26:18;6.20;99.90
11047;DHT22;5576;50.008;10.596;2023-02-21T06:28:44;8.20;99.90
11047;DHT22;5576;50.008;10.596;2023-02-21T06:31:10;9.60;99.90
11047;DHT22;5576;50.008;10.596;2023-02-21T06:33:36;8.20;99.90
11047;DHT22;5576;50.008;10.596;2023-02-21T06:36:05;6.20;99.90
11047;DHT22;5576;50.008;10.596;2023-02-21T06:38:32;9.30;99.90
11047;DHT22;5576;50.008;10.596;2023-02-21T06:40:58;6.10;99.90
11047;DHT22;5576;50.008;10.596;2023-02-21T06:43:23;5.90;99.90
11047;DHT22;5576;50.008;10.596;2023-02-21T06:45:49;5.70;99.90
11047;DHT22;5576;50.008;10.596;2023-02-21T06:48:15;5.70;99.90
11047;DHT22;5576;50.008;10.596;2023-02-21T06:50:41;5.60;99.90
11047;DHT22;5576;50.008;10.596;2023-02-21T06:53:07;5.50;99.90
11047;DHT22;5576;50.008;10.596;2023-02-21T06:55:33;5.60;99.90
11047;DHT22;5576;50.008;10.596;2023-02-21T06:57:58;5.70;99.90
11047;DHT22;5576;50.008;10.596;2023-02-21T07:00:24;5.80;99.90
11047;DHT22;5576;50.008;10.596;2023-02-21T07:02:52;5.70;99.90
11047;DHT22;5576;50.008;10.596;2023-02-21T07:05:18;8.10;99.90
11047;DHT22;5576;50.008;10.596;2023-02-21T07:07:44;2.10;99.90
11047;DHT22;5576;50.008;10.596;2023-02-21T07:10:10;6.10;99.90
11047;DHT22;5576;50.008;10.596;2023-02-21T07:12:36;6.10;99.90
11047;DHT22;5576;50.008;10.596;2023-02-21T07:15:02;6.20;99.90
11047;DHT22;5576;50.008;10.596;2023-02-21T07:17:28;4.70;99.90
11047;DHT22;5576;50.008;10.596;2023-02-21T07:19:54;6.20;99.90
11047;DHT22;5576;50.008;10.596;2023-02-21T07:22:19;6.30;99.90
11047;DHT22;5576;50.008;10.596;2023-02-21T07:24:52;6.40;99.90
11047;DHT22;5576;50.008;10.596;2023-02-21T07:27:18;9.40;99.90
11047;DHT22;5576;50.008;10.596;2023-02-21T07:29:46;6.70;99.90
11047;DHT22;5576;50.008;10.596;2023-02-21T07:32:12;6.70;99.90
11047;DHT22;5576;50.008;10.596;2023-02-21T07:34:38;6.70;99.90
11047;DHT22;5576;50.008;10.596;2023-02-21T07:37:04;8.40;99.90
11047;DHT22;5576;50.008;10.596;2023-02-21T07:39:30;6.90;99.90
11047;DHT22;5576;50.008;10.596;2023-02-21T07:41:55;7.00;99.90
11047;DHT22;5576;50.008;10.596;2023-02-21T07:44:27;7.10;99.90
11047;DHT22;5576;50.008;10.596;2023-02-21T07:46:55;2.90;99.90
11047;DHT22;5576;50.008;10.596;2023-02-21T07:49:22;7.20;99.90
11047;DHT22;5576;50.008;10.596;2023-02-21T07:51:48;4.90;99.90
11047;DHT22;5576;50.008;10.596;2023-02-21T07:54:15;7.50;99.90
11047;DHT22;5576;50.008;10.596;2023-02-21T07:56:46;6.30;99.90
11047;DHT22;5576;50.008;10.596;2023-02-21T07:59:12;7.50;99.90
11047;DHT22;5576;50.008;10.596;2023-02-21T08:01:37;7.50;99.90
11047;DHT22;5576;50.008;10.596;2023-02-21T08:04:03;11.30;99.90
11047;DHT22;5576;50.008;10.596;2023-02-21T08:06:30;5.00;99.90
11047;DHT22;5576;50.008;10.596;2023-02-21T08:08:55;7.50;99.90
11047;DHT22;5576;50.008;10.596;2023-02-21T08:11:21;7.70;99.90
11047;DHT22;5576;50.008;10.596;2023-02-21T08:13:47;7.60;99.90
11047;DHT22;5576;50.008;10.596;2023-02-21T08:16:13;7.60;99.90
11047;DHT22;5576;50.008;10.596;2023-02-21T08:18:38;10.00;99.90
11047;DHT22;5576;50.008;10.596;2023-02-21T08:21:08;5.00;99.90
11047;DHT22;5576;50.008;10.596;2023-02-21T08:23:34;7.70;99.90
11047;DHT22;5576;50.008;10.596;2023-02-21T08:26:02;8.00;99.90
11047;DHT22;5576;50.008;10.596;2023-02-21T08:28:28;8.00;99.90
11047;DHT22;5576;50.008;10.596;2023-02-21T08:30:54;8.10;99.90
11047;DHT22;5576;50.008;10.596;2023-02-21T08:33:19;8.30;99.90
11047;DHT22;5576;50.008;10.596;2023-02-21T08:35:45;8.30;99.90
11047;DHT22;5576;50.008;10.596;2023-02-21T08:38:11;8.20;99.90
11047;DHT22;5576;50.008;10.596;2023-02-21T08:40:37;8.30;99.90
11047;DHT22;5576;50.008;10.596;2023-02-21T08:43:02;8.40;99.90
11047;DHT22;5576;50.008;10.596;2023-02-21T08:45:30;8.40;99.90
11047;DHT22;5576;50.008;10.596;2023-02-21T08:47:57;8.40;99.90
11047;DHT22;5576;50.008;10.596;2023-02-21T08:50:25;8.30;99.90
11047;DHT22;5576;50.008;10.596;2023-02-21T08:52:52;8.40;99.90
11047;DHT22;5576;50.008;10.596;2023-02-21T08:55:18;8.50;99.90
11047;DHT22;5576;50.008;10.596;2023-02-21T08:57:44;11.10;99.90
11047;DHT22;5576;50.008;10.596;2023-02-21T09:00:13;11.20;99.90
11047;DHT22;5576;50.008;10.596;2023-02-21T09:02:39;8.70;99.90
11047;DHT22;5576;50.008;10.596;2023-02-21T09:05:11;11.60;99.90
11047;DHT22;5576;50.008;10.596;2023-02-21T09:07:37;10.60;99.90
11047;DHT22;5576;50.008;10.596;2023-02-21T09:10:04;9.00;99.90
11047;DHT22;5576;50.008;10.596;2023-02-21T09:12:30;11.30;99.90
11047;DHT22;5576;50.008;10.596;2023-02-21T09:14:55;9.30;99.90
11047;DHT22;5576;50.008;10.596;2023-02-21T09:17:21;12.60;99.90
11047;DHT22;5576;50.008;10.596;2023-02-21T09:19:47;11.00;99.90
11047;DHT22;5576;50.008;10.596;2023-02-21T09:22:13;7.30;99.90
11047;DHT22;5576;50.008;10.596;2023-02-21T09:24:38;9.60;99.90
11047;DHT22;5576;50.008;10.596;2023-02-21T09:27:06;12.30;99.90
11047;DHT22;5576;50.008;10.596;2023-02-21T09:29:33;9.80;99.90
11047;DHT22;5576;50.008;10.596;2023-02-21T09:32:00;9.90;99.90
11047;DHT22;5576;50.008;10.596;2023-02-21T09:34:27;10.00;99.90
11047;DHT22;5576;50.008;10.596;2023-02-21T09:36:53;12.80;99.90
11047;DHT22;5576;50.008;10.596;2023-02-21T09:39:21;8.90;99.90
11047;DHT22;5576;50.008;10.596;2023-02-21T09:41:47;10.40;99.90
11047;DHT22;5576;50.008;10.596;2023-02-21T09:44:18;10.50;99.90
11047;DHT22;5576;50.008;10.596;2023-02-21T09:46:48;13.40;99.90
11047;DHT22;5576;50.008;10.596;2023-02-21T09:49:24;10.30;99.90
11047;DHT22;5576;50.008;10.596;2023-02-21T09:51:52;11.00;99.90
11047;DHT22;5576;50.008;10.596;2023-02-21T09:54:24;10.10;99.90
11047;DHT22;5576;50.008;10.596;2023-02-21T09:56:51;13.90;99.90
11047;DHT22;5576;50.008;10.596;2023-02-21T09:59:18;10.20;99.90
11047;DHT22;5576;50.008;10.596;2023-02-21T10:02:02;6.30;99.90
11047;DHT22;5576;50.008;10.596;2023-02-21T10:04:56;14.20;99.90
11047;DHT22;5576;50.008;10.596;2023-02-21T10:07:46;10.90;99.90
11047;DHT22;5576;50.008;10.596;2023-02-21T10:16:04;10.30;99.90
11047;DHT22;5576;50.008;10.596;2023-02-21T10:18:39;9.30;99.90
11047;DHT22;5576;50.008;10.596;2023-02-21T10:21:20;9.30;99.90
11047;DHT22;5576;50.008;10.596;2023-02-21T10:23:49;10.50;99.90
11047;DHT22;5576;50.008;10.596;2023-02-21T10:26:20;12.60;99.90
11047;DHT22;5576;50.008;10.596;2023-02-21T10:28:47;10.60;99.90
11047;DHT22;5576;50.008;10.596;2023-02-21T10:31:21;10.70;99.90
11047;DHT22;5576;50.008;10.596;2023-02-21T10:33:48;9.80;99.90
11047;DHT22;5576;50.008;10.596;2023-02-21T10:36:19;10.80;99.90
11047;DHT22;5576;50.008;10.596;2023-02-21T10:39:10;11.80;99.90
11047;DHT22;5576;50.008;10.596;2023-02-21T10:41:40;13.30;99.90
11047;DHT22;5576;50.008;10.596;2023-02-21T10:44:15;11.10;99.90
11047;DHT22;5576;50.008;10.596;2023-02-21T10:46:46;14.90;99.90
11047;DHT22;5576;50.008;10.596;2023-02-21T10:49:22;13.70;99.90
11047;DHT22;5576;50.008;10.596;2023-02-21T10:52:04;12.80;99.90
11047;DHT22;5576;50.008;10.596;2023-02-21T10:54:31;14.30;99.90
11047;DHT22;5576;50.008;10.596;2023-02-21T10:56:59;13.30;99.90
11047;DHT22;5576;50.008;10.596;2023-02-21T10:59:28;11.20;99.90
11047;DHT22;5576;50.008;10.596;2023-02-21T11:01:55;11.20;99.90
11047;DHT22;5576;50.008;10.596;2023-02-21T11:04:25;11.20;99.90
11047;DHT22;5576;50.008;10.596;2023-02-21T11:07:09;11.40;99.90
11047;DHT22;5576;50.008;10.596;2023-02-21T11:09:42;11.50;99.90
11047;DHT22;5576;50.008;10.596;2023-02-21T11:12:19;11.70;99.90
11047;DHT22;5576;50.008;10.596;2023-02-21T11:17:26;11.90;99.90
11047;DHT22;5576;50.008;10.596;2023-02-21T11:19:55;12.10;99.90
11047;DHT22;5576;50.008;10.596;2023-02-21T11:22:24;12.20;99.90
11047;DHT22;5576;50.008;10.596;2023-02-21T11:25:02;12.30;99.90
11047;DHT22;5576;50.008;10.596;2023-02-21T11:27:32;12.40;99.90
11047;DHT22;5576;50.008;10.596;2023-02-21T11:30:02;16.30;99.90
11047;DHT22;5576;50.008;10.596;2023-02-21T11:32:33;13.20;99.90
11047;DHT22;5576;50.008;10.596;2023-02-21T11:35:06;12.50;99.90
11047;DHT22;5576;50.008;10.596;2023-02-21T11:37:33;12.50;99.90
11047;DHT22;5576;50.008;10.596;2023-02-21T11:39:59;12.70;99.90
11047;DHT22;5576;50.008;10.596;2023-02-21T11:42:29;12.90;99.90
11047;DHT22;5576;50.008;10.596;2023-02-21T11:45:18;13.50;99.90
11047;DHT22;5576;50.008;10.596;2023-02-21T11:48:05;13.10;99.90
11047;DHT22;5576;50.008;10.596;2023-02-21T11:50:36;15.00;99.90
11047;DHT22;5576;50.008;10.596;2023-02-21T11:53:30;12.70;99.90
11047;DHT22;5576;50.008;10.596;2023-02-21T12:01:09;13.00;99.90
11047;DHT22;5576;50.008;10.596;2023-02-21T12:04:08;14.00;99.90
11047;DHT22;5576;50.008;10.596;2023-02-21T12:09:24;13.10;99.90
11047;DHT22;5576;50.008;10.596;2023-02-21T12:12:08;13.00;99.90
11047;DHT22;5576;50.008;10.596;2023-02-21T12:17:28;11.90;99.90
11047;DHT22;5576;50.008;10.596;2023-02-21T12:28:58;16.00;99.90
11047;DHT22;5576;50.008;10.596;2023-02-21T12:31:55;17.40;99.90
11047;DHT22;5576;50.008;10.596;2023-02-21T12:40:15;14.70;99.90
11047;DHT22;5576;50.008;10.596;2023-02-21T12:50:40;13.30;99.90
11047;DHT22;5576;50.008;10.596;2023-02-21T12:53:19;13.40;99.90
11047;DHT22;5576;50.008;10.596;2023-02-21T12:55:51;13.40;99.90
11047;DHT22;5576;50.008;10.596;2023-02-21T12:58:27;13.40;99.90
11047;DHT22;5576;50.008;10.596;2023-02-21T13:01:04;13.40;99.90
11047;DHT22;5576;50.008;10.596;2023-02-21T13:06:18;13.40;99.90
11047;DHT22;5576;50.008;10.596;2023-02-21T13:11:39;16.70;99.90
11047;DHT22;5576;50.008;10.596;2023-02-21T13:14:12;13.70;99.90
11047;DHT22;5576;50.008;10.596;2023-02-21T13:16:40;14.50;99.90
11047;DHT22;5576;50.008;10.596;2023-02-21T13:19:09;12.60;99.90
11047;DHT22;5576;50.008;10.596;2023-02-21T13:24:43;14.00;99.90
11047;DHT22;5576;50.008;10.596;2023-02-21T13:27:50;13.90;99.90
11047;DHT22;5576;50.008;10.596;2023-02-21T13:30:26;11.70;99.90
11047;DHT22;5576;50.008;10.596;2023-02-21T13:32:55;13.90;99.90
11047;DHT22;5576;50.008;10.596;2023-02-21T13:35:30;13.80;99.90
11047;DHT22;5576;50.008;10.596;2023-02-21T13:37:58;13.80;99.90
11047;DHT22;5576;50.008;10.596;2023-02-21T13:43:05;13.80;99.90
11047;DHT22;5576;50.008;10.596;2023-02-21T13:45:31;13.60;99.90
11047;DHT22;5576;50.008;10.596;2023-02-21T13:53:18;14.10;99.90
11047;DHT22;5576;50.008;10.596;2023-02-21T13:58:34;15.60;99.90
11047;DHT22;5576;50.008;10.596;2023-02-21T14:01:19;13.60;99.90
11047;DHT22;5576;50.008;10.596;2023-02-21T14:03:50;13.40;99.90
11047;DHT22;5576;50.008;10.596;2023-02-21T14:06:31;11.30;99.90
11047;DHT22;5576;50.008;10.596;2023-02-21T14:09:16;13.30;99.90
11047;DHT22;5576;50.008;10.596;2023-02-21T14:11:46;13.30;99.90
11047;DHT22;5576;50.008;10.596;2023-02-21T14:16:51;13.30;99.90
11047;DHT22;5576;50.008;10.596;2023-02-21T14:19:26;13.30;99.90
11047;DHT22;5576;50.008;10.596;2023-02-21T14:22:03;14.00;99.90
11047;DHT22;5576;50.008;10.596;2023-02-21T14:24:37;13.20;99.90
11047;DHT22;5576;50.008;10.596;2023-02-21T14:29:41;13.20;99.90
11047;DHT22;5576;50.008;10.596;2023-02-21T14:34:53;15.00;99.90
11047;DHT22;5576;50.008;10.596;2023-02-21T14:37:41;13.20;99.90
11047;DHT22;5576;50.008;10.596;2023-02-21T15:05:52;17.00;99.90
11047;DHT22;5576;50.008;10.596;2023-02-21T15:08:21;10.50;99.90
11047;DHT22;5576;50.008;10.596;2023-02-21T15:10:50;13.20;99.90
11047;DHT22;5576;50.008;10.596;2023-02-21T15:13:26;11.40;99.90
11047;DHT22;5576;50.008;10.596;2023-02-21T15:15:56;13.30;99.90
11047;DHT22;5576;50.008;10.596;2023-02-21T15:18:28;13.40;99.90
11047;DHT22;5576;50.008;10.596;2023-02-21T15:23:41;16.30;99.90
11047;DHT22;5576;50.008;10.596;2023-02-21T15:26:26;16.30;99.90
11047;DHT22;5576;50.008;10.596;2023-02-21T15:29:15;13.30;99.90
11047;DHT22;5576;50.008;10.596;2023-02-21T15:31:52;15.00;99.90
11047;DHT22;5576;50.008;10.596;2023-02-21T15:34:25;14.30;99.90
11047;DHT22;5576;50.008;10.596;2023-02-21T15:36:59;13.00;99.90
11047;DHT22;5576;50.008;10.596;2023-02-21T15:39:31;14.10;99.90
11047;DHT22;5576;50.008;10.596;2023-02-21T15:42:01;10.20;99.90
11047;DHT22;5576;50.008;10.596;2023-02-21T15:44:30;14.20;99.90
11047;DHT22;5576;50.008;10.596;2023-02-21T15:47:08;12.80;99.90
11047;DHT22;5576;50.008;10.596;2023-02-21T15:49:40;12.80;99.90
11047;DHT22;5576;50.008;10.596;2023-02-21T15:52:27;12.10;99.90
11047;DHT22;5576;50.008;10.596;2023-02-21T15:55:20;12.80;99.90
11047;DHT22;5576;50.008;10.596;2023-02-21T16:00:38;9.90;99.90
11047;DHT22;5576;50.008;10.596;2023-02-21T16:03:26;12.70;99.90
11047;DHT22;5576;50.008;10.596;2023-02-21T16:05:53;12.70;99.90
11047;DHT22;5576;50.008;10.596;2023-02-21T16:08:20;12.70;99.90
11047;DHT22;5576;50.008;10.596;2023-02-21T16:10:46;12.60;99.90
11047;DHT22;5576;50.008;10.596;2023-02-21T16:13:13;12.60;99.90
11047;DHT22;5576;50.008;10.596;2023-02-21T16:15:39;10.50;99.90
11047;DHT22;5576;50.008;10.596;2023-02-21T16:18:09;12.50;99.90
11047;DHT22;5576;50.008;10.596;2023-02-21T16:20:38;12.50;99.90
11047;DHT22;5576;50.008;10.596;2023-02-21T16:28:22;12.60;99.90
11047;DHT22;5576;50.008;10.596;2023-02-21T16:30:48;12.60;99.90
11047;DHT22;5576;50.008;10.596;2023-02-21T16:33:14;12.60;99.90
11047;DHT22;5576;50.008;10.596;2023-02-21T16:35:41;12.60;99.90
11047;DHT22;5576;50.008;10.596;2023-02-21T16:38:12;15.30;99.90
11047;DHT22;5576;50.008;10.596;2023-02-21T16:40:38;11.50;99.90
11047;DHT22;5576;50.008;10.596;2023-02-21T16:43:04;12.50;99.90
11047;DHT22;5576;50.008;10.596;2023-02-21T16:45:30;12.40;99.90
11047;DHT22;5576;50.008;10.596;2023-02-21T16:47:59;12.50;99.90
11047;DHT22;5576;50.008;10.596;2023-02-21T16:52:54;12.40;99.90
11047;DHT22;5576;50.008;10.596;2023-02-21T16:55:20;12.40;99.90
11047;DHT22;5576;50.008;10.596;2023-02-21T16:57:48;12.30;99.90
11047;DHT22;5576;50.008;10.596;2023-02-21T17:00:17;12.20;99.90
11047;DHT22;5576;50.008;10.596;2023-02-21T17:02:48;12.20;99.90
11047;DHT22;5576;50.008;10.596;2023-02-21T17:05:15;12.20;99.90
11047;DHT22;5576;50.008;10.596;2023-02-21T17:07:41;12.10;99.90
11047;DHT22;5576;50.008;10.596;2023-02-21T17:10:07;12.00;99.90
11047;DHT22;5576;50.008;10.596;2023-02-21T17:12:33;11.90;99.90
11047;DHT22;5576;50.008;10.596;2023-02-21T17:14:59;11.90;99.90
11047;DHT22;5576;50.008;10.596;2023-02-21T17:17:25;11.70;99.90
11047;DHT22;5576;50.008;10.596;2023-02-21T17:19:50;14.00;99.90
11047;DHT22;5576;50.008;10.596;2023-02-21T17:22:16;11.60;99.90
11047;DHT22;5576;50.008;10.596;2023-02-21T17:24:42;11.60;99.90
11047;DHT22;5576;50.008;10.596;2023-02-21T17:27:08;11.50;99.90
11047;DHT22;5576;50.008;10.596;2023-02-21T17:29:34;11.30;99.90
11047;DHT22;5576;50.008;10.596;2023-02-21T17:31:59;11.30;99.90
11047;DHT22;5576;50.008;10.596;2023-02-21T17:34:33;9.00;99.90
11047;DHT22;5576;50.008;10.596;2023-02-21T17:36:59;11.10;99.90
11047;DHT22;5576;50.008;10.596;2023-02-21T17:39:24;11.10;99.90
11047;DHT22;5576;50.008;10.596;2023-02-21T17:41:51;11.10;99.90
11047;DHT22;5576;50.008;10.596;2023-02-21T17:44:17;11.00;99.90
11047;DHT22;5576;50.008;10.596;2023-02-21T17:46:47;10.90;99.90
11047;DHT22;5576;50.008;10.596;2023-02-21T17:51:40;7.70;99.90
11047;DHT22;5576;50.008;10.596;2023-02-21T17:54:06;9.10;99.90
11047;DHT22;5576;50.008;10.596;2023-02-21T17:56:32;10.00;99.90
11047;DHT22;5576;50.008;10.596;2023-02-21T17:58:57;9.90;99.90
11047;DHT22;5576;50.008;10.596;2023-02-21T18:01:23;9.80;99.90
11047;DHT22;5576;50.008;10.596;2023-02-21T18:03:50;9.70;99.90
11047;DHT22;5576;50.008;10.596;2023-02-21T18:06:16;9.70;99.90
11047;DHT22;5576;50.008;10.596;2023-02-21T18:08:42;6.50;99.90
11047;DHT22;5576;50.008;10.596;2023-02-21T18:11:10;10.30;99.90
11047;DHT22;5576;50.008;10.596;2023-02-21T18:13:36;9.00;99.90
11047;DHT22;5576;50.008;10.596;2023-02-21T18:16:02;9.40;99.90
11047;DHT22;5576;50.008;10.596;2023-02-21T18:18:30;7.90;99.90
11047;DHT22;5576;50.008;10.596;2023-02-21T18:20:57;7.30;99.90
11047;DHT22;5576;50.008;10.596;2023-02-21T18:23:25;9.60;99.90
11047;DHT22;5576;50.008;10.596;2023-02-21T18:25:51;9.60;99.90
11047;DHT22;5576;50.008;10.596;2023-02-21T18:28:17;12.90;99.90